createdAt,value
2022-09-12T00:01:48.543Z,99637.81
2022-09-12T00:04:17.881Z,99628.88
2022-09-12T00:06:46.362Z,99634.03
2022-09-12T00:09:16.586Z,99633.22
2022-09-12T00:11:47.215Z,99632.66
2022-09-12T00:14:17.764Z,99626.25
2022-09-12T00:16:49.819Z,99622.66
2022-09-12T00:19:22.184Z,99621.25
2022-09-12T00:21:51.636Z,99626.91
2022-09-12T00:24:21.204Z,99618.00
2022-09-12T00:26:49.577Z,99619.53
2022-09-12T00:29:21.426Z,99616.66
2022-09-12T00:31:52.218Z,99617.13
2022-09-12T00:34:21.595Z,99612.38
2022-09-12T00:36:50.560Z,99618.00
2022-09-12T00:39:19.923Z,99611.84
2022-09-12T00:41:48.714Z,99610.50
2022-09-12T00:44:44.767Z,99608.00
2022-09-12T00:47:18.411Z,99607.16
2022-09-12T00:49:49.839Z,99606.16
2022-09-12T00:52:21.829Z,99604.31
2022-09-12T00:54:55.524Z,99608.41
2022-09-12T00:57:25.120Z,99608.31
2022-09-12T00:59:56.285Z,99617.94
2022-09-12T01:02:26.368Z,99606.69
2022-09-12T01:04:56.092Z,99605.97
2022-09-12T01:07:24.301Z,99617.69
2022-09-12T01:09:54.073Z,99608.66
2022-09-12T01:12:22.472Z,99604.41
2022-09-12T01:14:51.841Z,99599.03
2022-09-12T01:17:20.558Z,99599.91
2022-09-12T01:20:22.993Z,99600.94
2022-09-12T01:23:09.398Z,99600.16
2022-09-12T01:25:48.678Z,99602.09
2022-09-12T01:28:48.795Z,99596.22
2022-09-12T01:31:22.878Z,99590.53
2022-09-12T01:33:59.143Z,99587.72
2022-09-12T01:36:38.253Z,99582.03
2022-09-12T01:39:08.008Z,99579.88
2022-09-12T01:41:44.692Z,99580.00
2022-09-12T01:44:18.813Z,99579.88
2022-09-12T01:46:55.273Z,99583.03
2022-09-12T01:49:26.106Z,99583.94
2022-09-12T01:51:58.681Z,99574.34
2022-09-12T01:54:31.945Z,99575.81
2022-09-12T01:57:04.681Z,99575.25
2022-09-12T01:59:37.468Z,99579.22
2022-09-12T02:02:10.312Z,99578.44
2022-09-12T02:04:43.410Z,99575.63
2022-09-12T02:07:15.781Z,99570.06
2022-09-12T02:09:47.648Z,99573.88
2022-09-12T02:12:20.220Z,99581.50
2022-09-12T02:14:53.275Z,99575.44
2022-09-12T02:17:25.094Z,99572.56
2022-09-12T02:19:56.927Z,99568.84
2022-09-12T02:22:28.112Z,99566.41
2022-09-12T02:25:01.492Z,99571.31
2022-09-12T02:27:33.684Z,99563.28
2022-09-12T02:30:02.641Z,99564.94
2022-09-12T02:32:37.638Z,99567.50
2022-09-12T02:35:09.102Z,99558.69
2022-09-12T02:37:48.971Z,99560.53
2022-09-12T02:40:18.159Z,99560.19
2022-09-12T02:42:46.380Z,99562.25
2022-09-12T02:45:14.990Z,99562.88
2022-09-12T02:47:47.170Z,99570.66
2022-09-12T02:50:15.833Z,99561.34
2022-09-12T02:52:48.762Z,99562.78
2022-09-12T02:55:17.915Z,99561.16
2022-09-12T02:57:45.964Z,99567.63
2022-09-12T03:00:15.679Z,99566.50
2022-09-12T03:02:59.820Z,99559.84
2022-09-12T03:05:31.901Z,99556.44
2022-09-12T03:08:29.637Z,99551.53
2022-09-12T03:11:16.504Z,99561.59
2022-09-12T03:13:54.292Z,99566.00
2022-09-12T03:16:29.642Z,99561.59
2022-09-12T03:19:05.020Z,99554.66
2022-09-12T03:21:39.562Z,99555.94
2022-09-12T03:24:13.515Z,99566.34
2022-09-12T03:26:46.183Z,99558.41
2022-09-12T03:29:16.586Z,99565.47
2022-09-12T03:31:52.685Z,99554.38
2022-09-12T03:34:24.330Z,99554.13
2022-09-12T03:36:55.574Z,99558.25
2022-09-12T03:39:26.916Z,99549.28
2022-09-12T03:41:58.008Z,99547.34
2022-09-12T03:44:27.556Z,99554.38
2022-09-12T03:46:55.784Z,99551.91
2022-09-12T03:49:26.666Z,99548.13
2022-09-12T03:51:55.781Z,99544.22
2022-09-12T03:54:25.397Z,99540.81
2022-09-12T03:56:53.754Z,99540.53
2022-09-12T03:59:23.384Z,99545.63
2022-09-12T04:01:51.983Z,99557.31
2022-09-12T04:04:21.205Z,99558.41
2022-09-12T04:06:51.272Z,99552.59
2022-09-12T04:09:20.768Z,99550.41
2022-09-12T04:11:49.933Z,99560.09
2022-09-12T04:14:19.356Z,99560.16
2022-09-12T04:16:48.694Z,99553.94
2022-09-12T04:19:17.740Z,99556.63
2022-09-12T04:21:46.361Z,99558.09
2022-09-12T04:24:16.166Z,99553.09
2022-09-12T04:26:48.039Z,99547.59
2022-09-12T04:29:17.806Z,99559.19
2022-09-12T04:31:47.263Z,99552.16
2022-09-12T04:34:16.765Z,99550.72
2022-09-12T04:36:46.475Z,99553.41
2022-09-12T04:39:17.098Z,99548.72
2022-09-12T04:41:45.291Z,99544.47
2022-09-12T04:44:15.291Z,99550.00
2022-09-12T04:46:48.071Z,99543.84
2022-09-12T04:49:19.584Z,99546.41
2022-09-12T04:51:49.054Z,99556.88
2022-09-12T04:54:20.730Z,99554.56
2022-09-12T04:56:51.193Z,99558.25
2022-09-12T04:59:21.126Z,99570.41
2022-09-12T05:01:50.675Z,99567.91
2022-09-12T05:04:19.886Z,99568.56
2022-09-12T05:06:49.764Z,99565.91
2022-09-12T05:09:20.246Z,99563.91
2022-09-12T05:12:08.160Z,99578.47
2022-09-12T05:14:37.810Z,99577.81
2022-09-12T05:17:07.485Z,99586.06
2022-09-12T05:19:35.951Z,99599.72
2022-09-12T05:22:08.004Z,99588.88
2022-09-12T05:24:49.877Z,99596.59
2022-09-12T05:27:20.215Z,99596.78
2022-09-12T05:29:48.837Z,99602.34
2022-09-12T05:32:17.961Z,99600.63
2022-09-12T05:34:48.795Z,99600.47
2022-09-12T05:37:18.590Z,99603.28
2022-09-12T05:39:48.676Z,99604.53
2022-09-12T05:42:18.020Z,99604.72
2022-09-12T05:44:46.685Z,99605.56
2022-09-12T05:47:17.483Z,99616.38
2022-09-12T05:49:51.423Z,99612.56
2022-09-12T05:52:21.542Z,99604.59
2022-09-12T05:54:51.433Z,99609.78
2022-09-12T05:57:20.888Z,99613.09
2022-09-12T05:59:50.988Z,99611.59
2022-09-12T06:02:20.693Z,99615.22
2022-09-12T06:04:49.911Z,99609.44
2022-09-12T06:07:19.218Z,99598.38
2022-09-12T06:09:47.886Z,99589.19
2022-09-12T06:12:18.674Z,99594.72
2022-09-12T06:14:47.919Z,99598.38
2022-09-12T06:17:17.534Z,99600.91
2022-09-12T06:19:48.363Z,99601.84
2022-09-12T06:22:18.093Z,99601.25
2022-09-12T06:24:49.389Z,99606.78
2022-09-12T06:27:20.342Z,99607.88
2022-09-12T06:29:49.037Z,99605.94
2022-09-12T06:32:18.576Z,99602.97
2022-09-12T06:34:48.539Z,99610.22
2022-09-12T06:37:18.351Z,99608.25
2022-09-12T06:39:46.990Z,99611.63
2022-09-12T06:42:16.816Z,99613.66
2022-09-12T06:44:59.589Z,99619.13
2022-09-12T06:47:28.317Z,99615.59
2022-09-12T06:49:57.230Z,99617.28
2022-09-12T06:52:25.469Z,99621.19
2022-09-12T06:54:54.266Z,99627.34
2022-09-12T06:57:22.512Z,99634.94
2022-09-12T06:59:51.182Z,99629.75
2022-09-12T07:02:22.395Z,99629.84
2022-09-12T07:04:51.922Z,99630.13
2022-09-12T07:07:21.903Z,99622.84
2022-09-12T07:09:51.078Z,99631.31
2022-09-12T07:12:20.633Z,99642.59
2022-09-12T07:14:49.520Z,99645.97
2022-09-12T07:17:19.003Z,99645.84
2022-09-12T07:19:48.792Z,99647.16
2022-09-12T07:22:18.932Z,99647.31
2022-09-12T07:24:57.323Z,99649.47
2022-09-12T07:27:28.082Z,99653.47
2022-09-12T07:29:57.286Z,99656.34
2022-09-12T07:32:26.102Z,99653.38
2022-09-12T07:34:56.994Z,99653.56
2022-09-12T07:37:25.384Z,99664.44
2022-09-12T07:39:56.791Z,99656.16
2022-09-12T07:42:24.975Z,99654.41
2022-09-12T07:44:54.152Z,99658.47
2022-09-12T07:47:22.541Z,99651.91
2022-09-12T07:49:52.494Z,99654.59
2022-09-12T07:52:23.521Z,99652.44
2022-09-12T07:54:52.215Z,99650.31
2022-09-12T07:57:21.819Z,99652.16
2022-09-12T07:59:52.810Z,99652.72
2022-09-12T08:02:21.736Z,99647.56
2022-09-12T08:04:50.022Z,99653.63
2022-09-12T08:07:20.170Z,99657.50
2022-09-12T08:09:50.458Z,99654.72
2022-09-12T08:12:20.455Z,99647.75
2022-09-12T08:14:49.477Z,99642.66
2022-09-12T08:17:18.776Z,99651.06
2022-09-12T08:19:48.321Z,99650.25
2022-09-12T08:22:18.764Z,99652.56
2022-09-12T08:24:47.331Z,99646.72
2022-09-12T08:27:19.385Z,99639.50
2022-09-12T08:29:51.889Z,99637.28
2022-09-12T08:32:20.389Z,99648.59
2022-09-12T08:34:49.697Z,99648.25
2022-09-12T08:37:20.826Z,99656.31
2022-09-12T08:39:50.317Z,99654.75
2022-09-12T08:42:24.680Z,99650.91
2022-09-12T08:45:08.318Z,99648.84
2022-09-12T08:47:38.145Z,99640.09
2022-09-12T08:50:17.832Z,99638.22
2022-09-12T08:52:53.165Z,99642.91
2022-09-12T08:55:44.221Z,99642.78
2022-09-12T08:58:17.229Z,99638.34
2022-09-12T09:00:51.786Z,99638.31
2022-09-12T09:03:56.650Z,99644.84
2022-09-12T09:06:36.335Z,99644.22
2022-09-12T09:09:08.241Z,99633.13
2022-09-12T09:11:57.323Z,99641.44
2022-09-12T09:14:52.275Z,99636.84
2022-09-12T09:17:26.509Z,99626.63
2022-09-12T09:20:00.068Z,99633.91
2022-09-12T09:22:36.733Z,99634.22
2022-09-12T09:25:08.519Z,99628.75
2022-09-12T09:27:41.615Z,99629.69
2022-09-12T09:30:17.807Z,99624.13
2022-09-12T09:32:50.114Z,99621.97
2022-09-12T09:35:22.229Z,99623.63
2022-09-12T09:38:02.876Z,99626.63
2022-09-12T09:40:40.654Z,99625.78
2022-09-12T09:43:18.467Z,99626.25
2022-09-12T09:45:50.756Z,99625.31
2022-09-12T09:48:22.011Z,99619.09
2022-09-12T09:50:51.828Z,99620.25
2022-09-12T09:53:30.582Z,99629.28
2022-09-12T09:56:02.524Z,99624.53
2022-09-12T09:58:34.366Z,99623.31
2022-09-12T10:01:06.250Z,99613.06
2022-09-12T10:03:39.171Z,99624.97
2022-09-12T10:06:09.805Z,99613.59
2022-09-12T10:08:39.352Z,99611.94
2022-09-12T10:11:17.999Z,99608.06
2022-09-12T10:13:54.789Z,99604.13
2022-09-12T10:16:27.933Z,99601.34
2022-09-12T10:18:58.940Z,99609.19
2022-09-12T10:21:32.990Z,99613.75
2022-09-12T10:24:05.536Z,99614.38
2022-09-12T10:26:37.618Z,99619.72
2022-09-12T10:29:16.001Z,99625.13
2022-09-12T10:31:54.147Z,99620.19
2022-09-12T10:34:30.704Z,99608.09
2022-09-12T10:37:06.235Z,99605.19
2022-09-12T10:39:36.255Z,99607.38
2022-09-12T10:42:06.611Z,99590.72
2022-09-12T10:44:36.449Z,99599.88
2022-09-12T10:47:24.393Z,99598.59
2022-09-12T10:49:53.688Z,99592.53
2022-09-12T10:52:24.418Z,99587.78
2022-09-12T10:54:53.933Z,99584.25
2022-09-12T10:57:51.239Z,99593.22
2022-09-12T11:00:28.049Z,99591.34
2022-09-12T11:03:07.288Z,99596.94
2022-09-12T11:05:51.034Z,99594.88
2022-09-12T11:08:42.251Z,99580.28
2022-09-12T11:11:24.481Z,99576.31
2022-09-12T11:14:07.871Z,99571.94
2022-09-12T11:16:43.068Z,99568.97
2022-09-12T11:19:35.142Z,99577.56
2022-09-12T11:22:20.184Z,99575.66
2022-09-12T11:25:14.511Z,99569.63
2022-09-12T11:27:52.137Z,99568.16
2022-09-12T11:30:20.630Z,99568.59
2022-09-12T11:33:12.317Z,99570.03
2022-09-12T11:35:53.071Z,99569.00
2022-09-12T11:38:40.334Z,99565.81
2022-09-12T11:41:11.462Z,99560.41
2022-09-12T11:43:47.700Z,99558.78
2022-09-12T11:46:21.143Z,99550.97
2022-09-12T11:48:54.870Z,99561.84
2022-09-12T11:51:29.236Z,99565.59
2022-09-12T11:54:04.098Z,99569.19
2022-09-12T11:56:35.967Z,99554.34
2022-09-12T11:59:07.291Z,99556.00
2022-09-12T12:01:44.968Z,99550.38
2022-09-12T12:04:20.121Z,99552.41
2022-09-12T12:06:54.417Z,99546.59
2022-09-12T12:09:23.785Z,99555.59
2022-09-12T12:11:56.208Z,99546.84
2022-09-12T12:14:32.298Z,99531.25
2022-09-12T12:17:01.693Z,99543.56
2022-09-12T12:19:35.982Z,99554.03
2022-09-12T12:22:10.422Z,99535.88
2022-09-12T12:25:04.098Z,99541.31
2022-09-12T12:27:49.395Z,99528.22
2022-09-12T12:31:06.222Z,99528.94
2022-09-12T12:33:59.895Z,99526.38
2022-09-12T12:36:35.363Z,99518.06
2022-09-12T12:39:48.227Z,99519.63
2022-09-12T12:42:54.826Z,99507.94
2022-09-12T12:46:01.134Z,99506.06
2022-09-12T12:48:37.179Z,99493.25
2022-09-12T12:51:38.076Z,99494.75
2022-09-12T12:54:20.607Z,99498.81
2022-09-12T12:56:51.810Z,99495.50
2022-09-12T12:59:22.668Z,99496.13
2022-09-12T13:01:55.571Z,99496.94
2022-09-12T13:04:28.372Z,99493.91
2022-09-12T13:07:05.815Z,99498.59
2022-09-12T13:09:39.812Z,99505.69
2022-09-12T13:12:11.648Z,99493.13
2022-09-12T13:14:54.234Z,99512.72
2022-09-12T13:17:28.709Z,99500.16
2022-09-12T13:20:27.815Z,99501.09
2022-09-12T13:23:00.352Z,99498.28
2022-09-12T13:25:32.721Z,99491.88
2022-09-12T13:28:05.773Z,99489.13
2022-09-12T13:30:36.034Z,99484.41
2022-09-12T13:33:21.798Z,99484.44
2022-09-12T13:36:31.881Z,99479.59
2022-09-12T13:39:10.739Z,99483.28
2022-09-12T13:42:09.388Z,99490.84
2022-09-12T13:44:45.648Z,99475.00
2022-09-12T13:47:16.383Z,99476.09
2022-09-12T13:49:47.144Z,99469.00
2022-09-12T13:52:21.127Z,99475.16
2022-09-12T13:54:53.198Z,99479.06
2022-09-12T13:57:33.349Z,99476.44
2022-09-12T14:00:06.154Z,99472.63
2022-09-12T14:02:36.762Z,99474.53
2022-09-12T14:05:20.195Z,99475.16
2022-09-12T14:07:56.753Z,99478.06
2022-09-12T14:10:30.420Z,99470.34
2022-09-12T14:13:00.290Z,99475.63
2022-09-12T14:15:31.481Z,99480.34
2022-09-12T14:18:03.329Z,99485.09
2022-09-12T14:20:34.221Z,99479.34
2022-09-12T14:23:07.723Z,99466.03
2022-09-12T14:25:39.155Z,99472.59
2022-09-12T14:28:12.062Z,99478.72
2022-09-12T14:30:40.926Z,99476.00
2022-09-12T14:33:21.968Z,99472.72
2022-09-12T14:35:52.379Z,99477.59
2022-09-12T14:38:32.998Z,99468.31
2022-09-12T14:41:04.476Z,99467.03
2022-09-12T14:43:35.771Z,99472.34
2022-09-12T14:46:09.522Z,99466.13
2022-09-12T14:48:46.888Z,99462.06
2022-09-12T14:51:21.390Z,99464.56
2022-09-12T14:53:52.089Z,99472.06
2022-09-12T14:56:22.765Z,99466.00
2022-09-12T14:58:51.923Z,99462.06
2022-09-12T15:01:27.761Z,99459.00
2022-09-12T15:03:57.678Z,99458.66
2022-09-12T15:06:31.061Z,99457.34
2022-09-12T15:09:06.847Z,99450.50
2022-09-12T15:11:35.654Z,99457.19
2022-09-12T15:14:08.408Z,99463.19
2022-09-12T15:16:37.588Z,99460.81
2022-09-12T15:19:06.831Z,99455.19
2022-09-12T15:21:35.639Z,99461.44
2022-09-12T15:24:06.236Z,99458.44
2022-09-12T15:26:35.878Z,99459.13
2022-09-12T15:29:04.638Z,99464.16
2022-09-12T15:31:34.106Z,99458.22
2022-09-12T15:34:03.640Z,99461.28
2022-09-12T15:36:32.946Z,99458.78
2022-09-12T15:39:02.567Z,99454.88
2022-09-12T15:41:35.715Z,99456.03
2022-09-12T15:44:05.681Z,99450.19
2022-09-12T15:46:35.012Z,99455.72
2022-09-12T15:49:04.463Z,99454.25
2022-09-12T15:51:33.096Z,99451.50
2022-09-12T15:54:04.321Z,99455.38
2022-09-12T15:56:35.455Z,99459.50
2022-09-12T15:59:03.901Z,99458.72
2022-09-12T16:01:33.708Z,99456.97
2022-09-12T16:04:04.310Z,99448.72
2022-09-12T16:06:37.181Z,99452.44
2022-09-12T16:09:05.839Z,99457.78
2022-09-12T16:11:36.093Z,99447.13
2022-09-12T16:14:06.201Z,99454.69
2022-09-12T16:16:34.964Z,99448.22
2022-09-12T16:19:05.190Z,99442.53
2022-09-12T16:21:33.808Z,99449.72
2022-09-12T16:24:03.276Z,99448.28
2022-09-12T16:26:32.264Z,99450.63
2022-09-12T16:29:03.238Z,99456.63
2022-09-12T16:31:31.836Z,99451.34
2022-09-12T16:34:07.930Z,99451.13
2022-09-12T16:36:36.260Z,99448.69
2022-09-12T16:39:05.545Z,99450.94
2022-09-12T16:41:34.819Z,99453.88
2022-09-12T16:44:05.281Z,99455.00
2022-09-12T16:46:34.894Z,99455.44
2022-09-12T16:49:03.875Z,99452.53
2022-09-12T16:51:35.933Z,99450.63
2022-09-12T16:54:05.216Z,99450.03
2022-09-12T16:56:36.526Z,99455.91
2022-09-12T16:59:06.648Z,99456.56
2022-09-12T17:01:36.010Z,99451.09
2022-09-12T17:04:05.773Z,99453.63
2022-09-12T17:06:35.306Z,99454.00
2022-09-12T17:09:05.553Z,99450.31
2022-09-12T17:11:36.565Z,99450.72
2022-09-12T17:14:08.992Z,99453.44
2022-09-12T17:16:39.571Z,99452.19
2022-09-12T17:19:10.195Z,99454.25
2022-09-12T17:21:38.891Z,99451.34
2022-09-12T17:24:08.021Z,99457.41
2022-09-12T17:26:37.711Z,99458.00
2022-09-12T17:29:09.788Z,99461.97
2022-09-12T17:31:39.894Z,99461.34
2022-09-12T17:34:09.077Z,99461.56
2022-09-12T17:36:39.400Z,99473.44
2022-09-12T17:39:08.754Z,99476.78
2022-09-12T17:41:37.929Z,99480.75
2022-09-12T17:44:08.653Z,99480.09
2022-09-12T17:46:38.862Z,99489.25
2022-09-12T17:49:15.890Z,99485.50
2022-09-12T17:51:52.366Z,99497.53
2022-09-12T17:54:33.645Z,99486.41
2022-09-12T17:57:19.482Z,99492.97
2022-09-12T17:59:58.377Z,99497.03
2022-09-12T18:02:33.245Z,99486.16
2022-09-12T18:05:11.913Z,99493.69
2022-09-12T18:07:58.113Z,99496.78
2022-09-12T18:11:00.465Z,99499.13
2022-09-12T18:13:42.704Z,99511.13
2022-09-12T18:16:15.706Z,99503.59
2022-09-12T18:18:56.806Z,99510.66
2022-09-12T18:21:43.876Z,99514.97
2022-09-12T18:24:19.264Z,99516.13
2022-09-12T18:26:53.828Z,99524.91
2022-09-12T18:29:28.417Z,99524.00
2022-09-12T18:31:59.066Z,99521.75
2022-09-12T18:34:28.639Z,99526.63
2022-09-12T18:36:59.477Z,99513.03
2022-09-12T18:39:29.647Z,99526.25
2022-09-12T18:41:58.688Z,99516.53
2022-09-12T18:44:30.324Z,99517.34
2022-09-12T18:47:02.623Z,99521.03
2022-09-12T18:49:42.765Z,99525.41
2022-09-12T18:55:06.851Z,99538.56
2022-09-12T18:57:36.348Z,99532.59
2022-09-12T19:00:12.332Z,99526.97
2022-09-12T19:02:56.647Z,99528.75
2022-09-12T19:05:51.648Z,99533.44
2022-09-12T19:08:28.687Z,99529.28
2022-09-12T19:11:02.765Z,99521.00
2022-09-12T19:13:32.160Z,99524.78
2022-09-12T19:16:10.861Z,99516.94
2022-09-12T19:19:06.995Z,99526.50
2022-09-12T19:21:38.720Z,99526.50
2022-09-12T19:24:29.325Z,99528.28
2022-09-12T19:27:01.224Z,99520.28
2022-09-12T19:29:30.712Z,99513.16
2022-09-12T19:32:04.141Z,99522.81
2022-09-12T19:34:39.639Z,99512.06
2022-09-12T19:37:12.797Z,99520.31
2022-09-12T19:39:50.092Z,99515.56
2022-09-12T19:42:19.438Z,99511.94
2022-09-12T19:44:56.635Z,99513.06
2022-09-12T19:47:35.642Z,99516.53
2022-09-12T19:50:07.014Z,99514.81
2022-09-12T19:52:36.150Z,99514.63
2022-09-12T19:55:05.272Z,99508.38
2022-09-12T19:57:34.643Z,99509.78
2022-09-12T20:00:11.019Z,99509.09
2022-09-12T20:02:40.498Z,99504.50
2022-09-12T20:05:13.123Z,99507.09
2022-09-12T20:07:43.566Z,99503.25
2022-09-12T20:10:12.458Z,99499.50
2022-09-12T20:12:41.518Z,99496.16
2022-09-12T20:15:13.330Z,99510.13
2022-09-12T20:17:43.727Z,99505.63
2022-09-12T20:20:14.406Z,99512.13
2022-09-12T20:22:45.813Z,99516.34
2022-09-12T20:25:14.955Z,99518.75
2022-09-12T20:27:44.119Z,99516.25
2022-09-12T20:30:14.817Z,99521.06
2022-09-12T20:32:44.441Z,99523.44
2022-09-12T20:35:14.429Z,99529.81
2022-09-12T20:37:43.553Z,99531.66
2022-09-12T20:40:17.045Z,99528.56
2022-09-12T20:42:47.901Z,99530.44
2022-09-12T20:45:16.587Z,99527.09
2022-09-12T20:47:48.449Z,99524.94
2022-09-12T20:50:26.181Z,99526.34
2022-09-12T20:52:54.777Z,99519.41
2022-09-12T20:55:23.703Z,99523.31
2022-09-12T20:57:54.494Z,99521.41
2022-09-12T21:00:23.631Z,99518.38
2022-09-12T21:02:56.838Z,99524.16
2022-09-12T21:05:30.248Z,99522.53
2022-09-12T21:08:01.977Z,99518.63
2022-09-12T21:10:30.999Z,99522.78
2022-09-12T21:12:59.226Z,99523.50
2022-09-12T21:15:27.544Z,99526.31
2022-09-12T21:17:56.142Z,99527.00
2022-09-12T21:20:24.563Z,99518.88
2022-09-12T21:22:54.117Z,99523.53
2022-09-12T21:25:22.492Z,99525.84
2022-09-12T21:27:50.710Z,99514.38
2022-09-12T21:30:20.017Z,99517.66
2022-09-12T21:32:48.634Z,99519.31
2022-09-12T21:35:18.360Z,99517.94
2022-09-12T21:37:46.489Z,99521.06
2022-09-12T21:40:16.334Z,99524.25
2022-09-12T21:42:44.582Z,99524.31
2022-09-12T21:45:12.763Z,99512.63
2022-09-12T21:47:41.193Z,99515.13
2022-09-12T21:50:10.352Z,99514.59
2022-09-12T21:52:38.409Z,99509.28
2022-09-12T21:55:08.834Z,99513.47
2022-09-12T21:57:38.343Z,99508.72
2022-09-12T22:00:09.250Z,99513.94
2022-09-12T22:02:37.297Z,99512.25
2022-09-12T22:05:07.480Z,99504.19
2022-09-12T22:07:36.376Z,99500.75
2022-09-12T22:10:05.994Z,99501.66
2022-09-12T22:12:34.352Z,99498.66
2022-09-12T22:15:22.834Z,99502.78
2022-09-12T22:17:52.828Z,99495.91
2022-09-12T22:20:21.193Z,99493.69
2022-09-12T22:23:07.485Z,99495.91
2022-09-12T22:25:36.404Z,99494.78
2022-09-12T22:28:05.558Z,99490.31
2022-09-12T22:30:37.871Z,99490.59
2022-09-12T22:33:07.593Z,99498.88
2022-09-12T22:35:36.299Z,99500.75
2022-09-12T22:38:05.809Z,99502.25
2022-09-12T22:40:34.165Z,99503.16
2022-09-12T22:43:03.410Z,99506.22
2022-09-12T22:45:32.441Z,99501.78
2022-09-12T22:48:07.334Z,99499.47
2022-09-12T22:50:38.565Z,99496.28
2022-09-12T22:53:08.147Z,99495.25
2022-09-12T22:55:37.291Z,99492.28
2022-09-12T22:58:06.567Z,99488.75
2022-09-12T23:00:35.550Z,99497.50
2022-09-12T23:03:06.302Z,99488.66
2022-09-12T23:05:37.305Z,99482.78
2022-09-12T23:08:06.499Z,99484.34
2022-09-12T23:10:36.499Z,99477.13
2022-09-12T23:13:05.923Z,99481.75
2022-09-12T23:15:34.638Z,99478.03
2022-09-12T23:18:05.236Z,99468.84
2022-09-12T23:20:35.618Z,99468.22
2022-09-12T23:23:04.426Z,99471.16
2022-09-12T23:25:34.541Z,99475.22
2022-09-12T23:28:04.370Z,99474.41
2022-09-12T23:30:33.267Z,99472.75
2022-09-12T23:33:02.858Z,99464.38
2022-09-12T23:35:31.316Z,99469.66
2022-09-12T23:38:01.948Z,99467.47
2022-09-12T23:40:30.235Z,99464.75
2022-09-12T23:42:59.456Z,99460.19
2022-09-12T23:45:28.731Z,99457.09
2022-09-12T23:47:57.245Z,99465.19
2022-09-12T23:50:26.598Z,99460.13
2022-09-12T23:52:55.292Z,99458.28
2022-09-12T23:55:25.805Z,99465.75
2022-09-12T23:57:54.268Z,99457.47
